Time;durP1;ratioP1;P1;durP2;ratioP2;P2;SDS_P1;SDS_P2;PMS_P1;PMS_P2;Temp;Humidity;BMP_temperature;BMP_pressure;BME280_temperature;BME280_humidity;BME280_pressure;Samples;Min_cycle;Max_cycle;Signal;HPM_P1;HPM_P2
2024/01/07 00:02:30;;;;;;;1.63;1.40;;;3.60;98.20;;;;;;6045470;23;20545;-82
2024/01/07 00:09:47;;;;;;;1.70;1.40;;;3.70;98.20;;;;;;5885103;24;20457;-82
2024/01/07 00:12:25;;;;;;;1.70;1.47;;;3.60;98.20;;;;;;5905808;24;20534;-81
2024/01/07 00:22:38;;;;;;;1.63;1.50;;;3.50;98.20;;;;;;6052838;23;20471;-80
2024/01/07 00:25:41;;;;;;;1.70;1.50;;;3.50;98.20;;;;;;6055931;23;20420;-80
2024/01/07 00:28:14;;;;;;;1.70;1.50;;;3.50;98.20;;;;;;6053355;23;20614;-80
2024/01/07 00:30:51;;;;;;;1.67;1.43;;;3.50;98.20;;;;;;6055902;23;20555;-80
2024/01/07 00:37:08;;;;;;;1.67;1.50;;;3.50;98.20;;;;;;6017925;23;20748;-80
2024/01/07 00:43:22;;;;;;;1.60;1.40;;;3.60;98.20;;;;;;5998437;23;20460;-82
2024/01/07 00:45:49;;;;;;;1.63;1.40;;;3.60;98.20;;;;;;6048120;23;20424;-82
2024/01/07 00:48:16;;;;;;;1.60;1.40;;;3.60;98.20;;;;;;6062995;23;20839;-82
2024/01/07 00:50:43;;;;;;;1.63;1.40;;;3.60;98.20;;;;;;6065525;23;20462;-82
2024/01/07 00:53:10;;;;;;;1.67;1.40;;;3.60;98.20;;;;;;6047330;23;20462;-82
2024/01/07 00:55:37;;;;;;;1.67;1.40;;;3.60;98.20;;;;;;6039433;23;20421;-80
2024/01/07 00:58:04;;;;;;;1.60;1.30;;;3.60;98.20;;;;;;6048520;23;20523;-80
2024/01/07 01:00:33;;;;;;;1.70;1.50;;;3.60;98.20;;;;;;6041115;23;20447;-80
2024/01/07 01:03:00;;;;;;;1.70;1.40;;;3.60;98.20;;;;;;6048433;23;20454;-80
2024/01/07 01:05:28;;;;;;;1.70;1.60;;;3.60;98.20;;;;;;6040592;23;20433;-80
2024/01/07 01:07:56;;;;;;;1.70;1.50;;;3.60;98.20;;;;;;6049343;23;20459;-80
2024/01/07 01:10:23;;;;;;;1.60;1.30;;;3.60;98.20;;;;;;6049803;23;20444;-80
2024/01/07 01:12:52;;;;;;;1.67;1.40;;;3.50;98.20;;;;;;6050493;23;20539;-80
2024/01/07 01:15:19;;;;;;;1.70;1.40;;;3.50;98.20;;;;;;6040673;23;20763;-82
2024/01/07 01:17:47;;;;;;;1.70;1.40;;;3.50;98.20;;;;;;6051520;23;20456;-83
2024/01/07 01:20:14;;;;;;;1.63;1.40;;;3.50;98.20;;;;;;6037958;23;20535;-80
2024/01/07 01:22:41;;;;;;;1.70;1.40;;;3.50;98.20;;;;;;6050157;23;20451;-81
2024/01/07 01:25:08;;;;;;;1.63;1.40;;;3.50;98.20;;;;;;6067937;23;20424;-80
2024/01/07 01:27:35;;;;;;;1.70;1.50;;;3.50;98.20;;;;;;6054447;23;21008;-80
2024/01/07 01:30:02;;;;;;;1.60;1.40;;;3.50;98.20;;;;;;6069350;23;20428;-80
2024/01/07 01:32:28;;;;;;;1.70;1.60;;;3.50;98.20;;;;;;6056295;23;20452;-82
2024/01/07 01:34:56;;;;;;;1.70;1.50;;;3.50;98.20;;;;;;6067330;23;20437;-82
2024/01/07 01:37:23;;;;;;;1.63;1.40;;;3.50;98.20;;;;;;6052130;23;20703;-81
2024/01/07 01:39:50;;;;;;;1.63;1.40;;;3.50;98.20;;;;;;6076431;23;20431;-82
2024/01/07 01:42:17;;;;;;;1.60;1.40;;;3.50;98.20;;;;;;6054310;23;20587;-80
2024/01/07 01:44:44;;;;;;;1.67;1.40;;;3.50;98.20;;;;;;6070378;23;20429;-80
2024/01/07 01:47:12;;;;;;;1.70;1.50;;;3.50;98.20;;;;;;6053145;23;20451;-80
2024/01/07 01:49:39;;;;;;;1.70;1.50;;;3.40;98.20;;;;;;6069169;23;20423;-80
2024/01/07 01:52:09;;;;;;;1.70;1.50;;;3.40;98.20;;;;;;6055331;23;20530;-80
2024/01/07 01:54:37;;;;;;;1.70;1.60;;;3.40;98.20;;;;;;6080769;23;20423;-80
2024/01/07 01:57:04;;;;;;;1.67;1.50;;;3.40;98.20;;;;;;6055209;23;20451;-80
2024/01/07 01:59:32;;;;;;;1.70;1.47;;;3.40;98.20;;;;;;6072245;23;20675;-80
2024/01/07 02:01:59;;;;;;;1.60;1.40;;;3.40;98.20;;;;;;6055486;23;20720;-81
2024/01/07 02:04:27;;;;;;;1.63;1.40;;;3.40;98.20;;;;;;6068906;23;21074;-81
2024/01/07 02:06:54;;;;;;;1.80;1.50;;;3.40;98.20;;;;;;6053636;23;20475;-81
2024/01/07 02:09:22;;;;;;;1.70;1.40;;;3.40;98.20;;;;;;6063539;23;20511;-81
2024/01/07 02:12:01;;;;;;;1.70;1.40;;;3.40;98.20;;;;;;6051593;23;20455;-82
2024/01/07 02:14:28;;;;;;;1.70;1.50;;;3.40;98.20;;;;;;6068696;23;20431;-81
2024/01/07 02:16:55;;;;;;;1.60;1.40;;;3.40;98.20;;;;;;6054450;23;20451;-80
2024/01/07 02:19:23;;;;;;;1.60;1.33;;;3.40;98.20;;;;;;6069636;23;20420;-81
2024/01/07 02:21:51;;;;;;;1.67;1.40;;;3.40;98.20;;;;;;6051336;23;20959;-82
2024/01/07 02:24:20;;;;;;;1.70;1.50;;;3.40;98.20;;;;;;6068732;23;20825;-81
2024/01/07 02:26:47;;;;;;;1.60;1.40;;;3.40;98.20;;;;;;6059746;23;20707;-81
2024/01/07 02:29:14;;;;;;;1.60;1.40;;;3.40;98.20;;;;;;6068482;23;20451;-81
2024/01/07 02:31:40;;;;;;;1.70;1.50;;;3.40;98.20;;;;;;6053684;23;20483;-81
2024/01/07 02:34:09;;;;;;;1.60;1.40;;;3.30;98.20;;;;;;6069055;23;20431;-81
2024/01/07 02:36:40;;;;;;;1.70;1.47;;;3.30;98.20;;;;;;6057644;23;20457;-81
2024/01/07 02:39:07;;;;;;;1.67;1.40;;;3.30;98.20;;;;;;6079332;23;20454;-81
2024/01/07 02:41:35;;;;;;;1.70;1.50;;;3.30;98.20;;;;;;6053948;23;20470;-81
2024/01/07 02:44:02;;;;;;;1.60;1.40;;;3.30;98.20;;;;;;6068215;23;20479;-81
2024/01/07 02:46:29;;;;;;;1.60;1.43;;;3.30;98.20;;;;;;6050877;23;20455;-82
2024/01/07 02:48:55;;;;;;;1.70;1.40;;;3.30;98.20;;;;;;6068788;23;20982;-81
2024/01/07 02:51:22;;;;;;;1.70;1.60;;;3.30;98.20;;;;;;6054824;23;20868;-81
2024/01/07 02:53:49;;;;;;;1.60;1.50;;;3.30;98.20;;;;;;6068451;23;20479;-81
2024/01/07 02:56:16;;;;;;;1.63;1.50;;;3.30;98.20;;;;;;6053300;23;20530;-81
2024/01/07 02:58:44;;;;;;;1.67;1.40;;;3.30;98.20;;;;;;6067923;23;20506;-81
2024/01/07 03:01:11;;;;;;;1.70;1.50;;;3.30;98.20;;;;;;6053724;23;20455;-81
2024/01/07 03:03:38;;;;;;;1.60;1.40;;;3.30;98.20;;;;;;6070195;23;20940;-81
2024/01/07 03:06:05;;;;;;;1.63;1.40;;;3.30;98.20;;;;;;6053624;23;20502;-81
2024/01/07 03:08:33;;;;;;;1.60;1.40;;;3.20;98.20;;;;;;6068766;23;20555;-81
2024/01/07 03:11:05;;;;;;;1.67;1.40;;;3.20;98.20;;;;;;6054853;23;20846;-81
2024/01/07 03:13:31;;;;;;;1.70;1.60;;;3.20;98.20;;;;;;6068674;23;20689;-80
2024/01/07 03:16:00;;;;;;;2.37;2.17;;;3.20;98.20;;;;;;6054761;23;20506;-81
2024/01/07 03:18:28;;;;;;;2.10;1.90;;;3.20;98.20;;;;;;6068187;23;20455;-81
2024/01/07 03:20:55;;;;;;;1.63;1.40;;;3.20;98.20;;;;;;6054023;23;20511;-81
2024/01/07 03:23:22;;;;;;;1.67;1.50;;;3.20;98.20;;;;;;6068518;23;20410;-81
2024/01/07 03:25:48;;;;;;;1.60;1.30;;;3.30;98.20;;;;;;6056705;23;20483;-82
2024/01/07 03:28:15;;;;;;;2.60;2.40;;;3.20;98.20;;;;;;6071976;23;20451;-81
2024/01/07 03:30:42;;;;;;;2.30;2.10;;;3.20;98.20;;;;;;6074475;23;20439;-81
2024/01/07 03:33:10;;;;;;;1.60;1.40;;;3.20;98.20;;;;;;6056532;23;20511;-81
2024/01/07 03:35:37;;;;;;;1.67;1.50;;;3.10;98.20;;;;;;6072443;23;20443;-81
2024/01/07 03:38:04;;;;;;;1.60;1.40;;;3.10;98.20;;;;;;6058667;23;20477;-82
2024/01/07 03:40:31;;;;;;;1.70;1.50;;;3.10;98.20;;;;;;6072626;23;20499;-81
2024/01/07 03:42:58;;;;;;;1.70;1.50;;;3.10;98.20;;;;;;6053827;23;20463;-81
2024/01/07 03:45:25;;;;;;;1.70;1.50;;;3.10;98.20;;;;;;6071244;23;20458;-81
2024/01/07 03:47:52;;;;;;;4.90;4.50;;;3.10;98.20;;;;;;6053326;23;20451;-81
2024/01/07 03:50:20;;;;;;;1.70;1.50;;;3.10;98.20;;;;;;6074526;23;20467;-81
2024/01/07 03:52:47;;;;;;;1.67;1.40;;;3.10;98.20;;;;;;6055889;23;20451;-82
2024/01/07 03:55:14;;;;;;;1.70;1.60;;;3.10;98.20;;;;;;6071690;23;20821;-81
2024/01/07 03:57:41;;;;;;;1.60;1.40;;;3.10;98.20;;;;;;6060273;23;20516;-81
2024/01/07 04:00:09;;;;;;;1.63;1.40;;;3.10;98.20;;;;;;6073962;23;20530;-81
2024/01/07 04:02:36;;;;;;;1.63;1.50;;;3.10;98.20;;;;;;6054006;23;20976;-81
2024/01/07 04:05:03;;;;;;;1.70;1.50;;;3.10;98.20;;;;;;6069384;23;20530;-81
2024/01/07 04:07:32;;;;;;;1.70;1.53;;;3.10;98.20;;;;;;6052088;23;20852;-80
2024/01/07 04:09:58;;;;;;;1.60;1.40;;;3.00;98.20;;;;;;6069342;23;20443;-81
2024/01/07 04:12:25;;;;;;;1.67;1.40;;;3.00;98.20;;;;;;6058607;23;20511;-81
2024/01/07 04:14:52;;;;;;;1.70;1.50;;;3.00;98.20;;;;;;6073910;23;20462;-82
2024/01/07 04:17:19;;;;;;;1.67;1.40;;;3.00;98.20;;;;;;6058163;23;20547;-81
2024/01/07 04:19:46;;;;;;;1.70;1.50;;;3.00;98.20;;;;;;6069784;23;20447;-81
2024/01/07 04:22:15;;;;;;;1.70;1.40;;;3.00;98.20;;;;;;6051581;23;20538;-81
2024/01/07 04:24:43;;;;;;;1.63;1.40;;;3.10;98.20;;;;;;6081507;23;20630;-82
2024/01/07 04:27:10;;;;;;;1.70;1.50;;;3.00;98.20;;;;;;6055335;23;20550;-81
2024/01/07 04:29:37;;;;;;;1.63;1.50;;;3.10;98.20;;;;;;6069252;23;20914;-81
2024/01/07 04:32:04;;;;;;;1.70;1.50;;;3.10;98.20;;;;;;6055636;23;20483;-80
2024/01/07 04:34:32;;;;;;;1.60;1.40;;;3.00;98.20;;;;;;6079516;23;20427;-81
2024/01/07 04:36:58;;;;;;;1.70;1.50;;;3.00;98.20;;;;;;6053796;23;20487;-81
2024/01/07 04:39:26;;;;;;;1.67;1.40;;;3.00;98.20;;;;;;6071067;23;20945;-81
2024/01/07 04:41:54;;;;;;;1.63;1.50;;;3.00;98.20;;;;;;6058311;23;20821;-81
2024/01/07 04:44:27;;;;;;;1.70;1.50;;;3.00;98.20;;;;;;6071669;23;20436;-82
2024/01/07 04:46:53;;;;;;;1.70;1.50;;;2.90;98.20;;;;;;6061646;23;20487;-82
2024/01/07 04:49:21;;;;;;;1.67;1.40;;;2.90;98.20;;;;;;6069934;23;20534;-82
2024/01/07 04:51:48;;;;;;;1.70;1.50;;;2.90;98.20;;;;;;6053545;23;20570;-82
2024/01/07 04:54:15;;;;;;;1.70;1.50;;;2.80;98.20;;;;;;6068941;23;20431;-82
2024/01/07 04:56:42;;;;;;;1.70;1.50;;;2.80;98.20;;;;;;6053818;23;20471;-83
2024/01/07 04:59:11;;;;;;;1.63;1.40;;;2.80;98.20;;;;;;6067277;23;20426;-82
2024/01/07 05:01:38;;;;;;;1.70;1.50;;;2.80;98.20;;;;;;6059732;23;20459;-83
2024/01/07 05:04:05;;;;;;;1.63;1.40;;;2.80;98.20;;;;;;6068585;23;20470;-82
2024/01/07 05:06:32;;;;;;;1.67;1.40;;;2.70;98.20;;;;;;6059018;23;20526;-81
2024/01/07 05:08:59;;;;;;;3.10;2.90;;;2.80;98.20;;;;;;6068481;23;20847;-82
2024/01/07 05:11:26;;;;;;;2.30;2.10;;;2.80;98.20;;;;;;6053311;23;20459;-82
2024/01/07 05:13:52;;;;;;;1.60;1.40;;;2.80;98.20;;;;;;6068527;23;20506;-82
2024/01/07 05:16:21;;;;;;;1.63;1.40;;;2.80;98.20;;;;;;6053684;23;20451;-82
2024/01/07 05:18:48;;;;;;;1.67;1.43;;;2.80;98.20;;;;;;6067276;23;20447;-82
2024/01/07 05:21:15;;;;;;;1.67;1.50;;;2.80;98.20;;;;;;6053431;23;20477;-81
2024/01/07 05:23:42;;;;;;;1.60;1.40;;;2.80;98.20;;;;;;6068140;23;20494;-82
2024/01/07 05:26:08;;;;;;;1.60;1.40;;;2.80;98.20;;;;;;6053274;23;20457;-82
2024/01/07 05:28:37;;;;;;;1.70;1.50;;;2.80;98.20;;;;;;6068722;23;20461;-82
2024/01/07 05:31:04;;;;;;;1.80;1.70;;;2.70;98.20;;;;;;6052694;23;20531;-82
2024/01/07 05:33:32;;;;;;;1.70;1.50;;;2.60;98.20;;;;;;6070825;23;20463;-82
2024/01/07 05:35:59;;;;;;;1.67;1.50;;;2.60;98.20;;;;;;6060088;23;20957;-82
2024/01/07 05:38:26;;;;;;;1.70;1.50;;;2.60;98.20;;;;;;6074177;23;20455;-82
2024/01/07 05:40:53;;;;;;;1.63;1.50;;;2.60;98.20;;;;;;6052097;23;20527;-82
2024/01/07 05:43:20;;;;;;;2.37;2.17;;;2.60;98.20;;;;;;6065597;23;20805;-81
2024/01/07 05:45:47;;;;;;;1.67;1.40;;;2.70;98.20;;;;;;6058305;23;20681;-82
2024/01/07 05:48:14;;;;;;;1.70;1.50;;;2.70;98.20;;;;;;6065785;23;20446;-82
2024/01/07 05:50:42;;;;;;;1.70;1.60;;;2.70;98.20;;;;;;6066180;23;20511;-81
2024/01/07 05:53:09;;;;;;;1.70;1.40;;;2.70;98.20;;;;;;6052082;23;20455;-81
2024/01/07 05:55:36;;;;;;;1.67;1.47;;;2.70;98.20;;;;;;6067654;23;20423;-82
2024/01/07 05:58:03;;;;;;;1.60;1.40;;;2.70;98.20;;;;;;6054432;23;20530;-81
2024/01/07 06:00:29;;;;;;;1.60;1.50;;;2.60;98.20;;;;;;6078523;23;20980;-81
2024/01/07 06:02:56;;;;;;;1.60;1.40;;;2.60;98.20;;;;;;6053634;23;20479;-82
2024/01/07 06:05:23;;;;;;;6.17;5.77;;;2.60;98.20;;;;;;6069428;23;20420;-81
2024/01/07 06:07:51;;;;;;;1.63;1.50;;;2.60;98.20;;;;;;6052860;23;20451;-82
2024/01/07 06:10:18;;;;;;;1.70;1.60;;;2.60;98.20;;;;;;6067575;23;20542;-82
2024/01/07 06:12:45;;;;;;;1.67;1.50;;;2.60;98.20;;;;;;6051463;23;20452;-81
2024/01/07 06:15:12;;;;;;;1.70;1.57;;;2.60;98.20;;;;;;6066453;23;20945;-81
2024/01/07 06:17:39;;;;;;;1.70;1.60;;;2.50;98.20;;;;;;6053024;23;20945;-82
2024/01/07 06:20:09;;;;;;;1.60;1.40;;;2.60;98.20;;;;;;6070699;23;20921;-81
2024/01/07 06:22:36;;;;;;;1.70;1.50;;;2.50;98.20;;;;;;6052598;23;21023;-82
2024/01/07 06:25:05;;;;;;;1.70;1.53;;;2.50;98.20;;;;;;6077161;23;20925;-81
2024/01/07 06:27:32;;;;;;;1.60;1.40;;;2.50;98.20;;;;;;6054453;23;20483;-81
2024/01/07 06:29:59;;;;;;;1.80;1.70;;;2.50;98.20;;;;;;6074330;23;20507;-82
2024/01/07 06:32:26;;;;;;;1.70;1.50;;;2.50;98.20;;;;;;6051995;23;20530;-81
2024/01/07 06:34:55;;;;;;;1.63;1.50;;;2.50;98.20;;;;;;6066135;23;21079;-82
2024/01/07 06:37:29;;;;;;;1.70;1.50;;;2.50;98.20;;;;;;6050275;23;20530;-80
2024/01/07 06:39:59;;;;;;;1.70;1.50;;;2.50;98.20;;;;;;6070514;23;20478;-81
2024/01/07 06:45:45;;;;;;;1.70;1.50;;;2.50;98.20;;;;;;6005555;23;20467;-80
2024/01/07 06:48:12;;;;;;;1.70;1.50;;;2.50;98.20;;;;;;6023325;23;20451;-81
2024/01/07 06:50:39;;;;;;;1.60;1.40;;;2.50;98.20;;;;;;6066058;23;20529;-81
2024/01/07 06:53:07;;;;;;;1.70;1.57;;;2.40;98.20;;;;;;6052461;23;20451;-81
2024/01/07 06:55:35;;;;;;;1.70;1.50;;;2.40;98.20;;;;;;6067940;23;20951;-81
2024/01/07 06:58:02;;;;;;;1.67;1.50;;;2.40;98.20;;;;;;6053787;23;20510;-81
2024/01/07 07:00:30;;;;;;;1.70;1.60;;;2.40;98.20;;;;;;6072195;23;20483;-81
2024/01/07 07:02:58;;;;;;;1.70;1.60;;;2.40;98.20;;;;;;6055532;23;20534;-81
2024/01/07 07:05:25;;;;;;;1.60;1.50;;;2.40;98.20;;;;;;6070057;23;20458;-82
2024/01/07 07:07:52;;;;;;;1.63;1.50;;;2.30;98.20;;;;;;6054591;23;20524;-82
2024/01/07 07:10:19;;;;;;;2.83;2.63;;;2.30;98.20;;;;;;6068968;23;20534;-81
2024/01/07 07:12:46;;;;;;;1.67;1.50;;;2.30;98.20;;;;;;6052280;23;20451;-81
2024/01/07 07:15:12;;;;;;;1.70;1.50;;;2.30;98.20;;;;;;6067617;23;20507;-82
2024/01/07 07:17:41;;;;;;;1.67;1.47;;;2.20;98.20;;;;;;6054430;23;20530;-81
2024/01/07 07:20:22;;;;;;;;;;;;;;;;;;;;;
2024/01/07 07:22:49;;;;;;;2.67;2.47;;;2.30;98.20;;;;;;6061188;23;20470;-81
2024/01/07 07:25:15;;;;;;;1.67;1.40;;;2.30;98.20;;;;;;6077265;23;20411;-81
2024/01/07 07:27:43;;;;;;;1.63;1.50;;;2.30;98.20;;;;;;6053985;23;20457;-82
2024/01/07 07:30:10;;;;;;;1.60;1.43;;;2.30;98.20;;;;;;6070371;23;20503;-82
2024/01/07 07:32:42;;;;;;;1.87;1.70;;;2.30;98.20;;;;;;6057731;23;20464;-82
2024/01/07 07:35:09;;;;;;;1.60;1.40;;;2.30;98.20;;;;;;6072602;23;20434;-82
2024/01/07 07:37:35;;;;;;;1.70;1.50;;;2.30;98.20;;;;;;6057730;23;21010;-82
2024/01/07 07:40:02;;;;;;;1.70;1.57;;;2.20;98.20;;;;;;6072605;23;20684;-81
2024/01/07 07:42:29;;;;;;;1.70;1.50;;;2.20;98.20;;;;;;6057697;23;20451;-81
2024/01/07 07:44:56;;;;;;;1.67;1.50;;;2.20;98.20;;;;;;6070259;23;20955;-81
2024/01/07 07:47:23;;;;;;;1.70;1.50;;;2.20;98.20;;;;;;6060267;23;20777;-81
2024/01/07 07:49:51;;;;;;;1.70;1.50;;;2.20;98.20;;;;;;6073929;23;20514;-81
2024/01/07 07:52:21;;;;;;;1.70;1.60;;;2.20;98.20;;;;;;6062078;23;20523;-81
2024/01/07 07:54:49;;;;;;;1.67;1.50;;;2.20;98.20;;;;;;6074367;23;20412;-82
2024/01/07 07:57:16;;;;;;;1.67;1.40;;;2.30;98.20;;;;;;6062150;23;20451;-82
2024/01/07 07:59:43;;;;;;;1.70;1.50;;;2.20;98.20;;;;;;6080973;23;20966;-81
2024/01/07 08:02:10;;;;;;;1.60;1.50;;;2.20;98.20;;;;;;6058880;23;20455;-82
2024/01/07 08:04:37;;;;;;;1.70;1.50;;;2.20;98.20;;;;;;6074833;23;20434;-81
2024/01/07 08:07:05;;;;;;;1.70;1.60;;;2.20;98.20;;;;;;6064921;23;21041;-82
2024/01/07 08:09:32;;;;;;;1.70;1.60;;;2.20;98.20;;;;;;6075781;23;20519;-81
2024/01/07 08:11:59;;;;;;;1.67;1.50;;;2.20;98.20;;;;;;6058035;23;20495;-82
2024/01/07 08:14:26;;;;;;;1.63;1.50;;;2.20;98.20;;;;;;6081584;23;20423;-82
2024/01/07 08:16:53;;;;;;;1.67;1.47;;;2.20;98.20;;;;;;6060363;23;20526;-82
2024/01/07 08:19:20;;;;;;;1.70;1.50;;;2.20;98.20;;;;;;6083136;23;20424;-81
2024/01/07 08:22:05;;;;;;;1.67;1.50;;;2.20;98.20;;;;;;6059625;23;20586;-81
2024/01/07 08:24:33;;;;;;;1.60;1.40;;;2.20;98.20;;;;;;6084028;23;20478;-81
2024/01/07 08:27:00;;;;;;;1.63;1.50;;;2.20;98.20;;;;;;6052881;23;20451;-78
2024/01/07 08:29:26;;;;;;;1.70;1.60;;;2.20;98.20;;;;;;6065192;23;20498;-83
2024/01/07 08:31:53;;;;;;;1.67;1.50;;;2.20;98.20;;;;;;6050571;23;20459;-80
2024/01/07 08:34:20;;;;;;;1.70;1.50;;;2.20;98.20;;;;;;6065115;23;20515;-81
2024/01/07 08:36:47;;;;;;;1.70;1.50;;;2.20;98.20;;;;;;6050574;23;20462;-83
2024/01/07 08:39:15;;;;;;;1.70;1.50;;;2.20;98.20;;;;;;6063671;23;20433;-81
2024/01/07 08:41:43;;;;;;;1.63;1.50;;;2.20;98.20;;;;;;6050170;23;20479;-79
2024/01/07 08:44:10;;;;;;;1.70;1.53;;;2.20;98.20;;;;;;6064249;23;20428;-79
2024/01/07 08:46:37;;;;;;;1.63;1.50;;;2.10;98.20;;;;;;6048991;23;21004;-81
2024/01/07 08:49:04;;;;;;;3.23;2.93;;;2.20;98.20;;;;;;6071771;23;20431;-81
2024/01/07 08:51:31;;;;;;;1.70;1.50;;;2.20;98.20;;;;;;6050928;23;20451;-82
2024/01/07 08:53:59;;;;;;;1.70;1.50;;;2.10;98.20;;;;;;6064605;23;20680;-80
2024/01/07 08:56:26;;;;;;;1.70;1.50;;;2.10;98.20;;;;;;6049723;23;20817;-81
2024/01/07 08:58:54;;;;;;;1.70;1.50;;;2.10;98.20;;;;;;6065441;23;20773;-83
2024/01/07 09:01:21;;;;;;;1.70;1.50;;;2.10;98.20;;;;;;6051383;23;20461;-81
2024/01/07 09:03:48;;;;;;;1.70;1.50;;;2.10;98.20;;;;;;6063632;23;20613;-81
2024/01/07 09:06:15;;;;;;;1.70;1.50;;;2.00;98.20;;;;;;6052534;23;20789;-82
2024/01/07 09:08:42;;;;;;;1.70;1.50;;;2.00;98.20;;;;;;6068224;23;20755;-81
2024/01/07 09:11:11;;;;;;;1.70;1.50;;;2.00;98.20;;;;;;6052270;23;20490;-80
2024/01/07 09:13:37;;;;;;;1.67;1.50;;;2.00;98.20;;;;;;6065725;23;20479;-81
2024/01/07 09:16:08;;;;;;;1.67;1.53;;;2.00;98.20;;;;;;6050666;23;20427;-80
2024/01/07 09:18:35;;;;;;;1.70;1.50;;;2.00;98.20;;;;;;6066158;23;20404;-83
2024/01/07 09:21:02;;;;;;;1.63;1.50;;;2.00;98.20;;;;;;6052281;23;20440;-82
2024/01/07 09:23:30;;;;;;;1.70;1.60;;;2.00;98.20;;;;;;6065234;23;20492;-85
2024/01/07 09:26:00;;;;;;;1.70;1.60;;;2.00;98.20;;;;;;6051811;23;20497;-81
2024/01/07 09:28:26;;;;;;;1.70;1.60;;;2.00;98.20;;;;;;6065297;23;21035;-81
2024/01/07 09:30:53;;;;;;;1.70;1.60;;;1.90;98.20;;;;;;6053051;23;20486;-81
2024/01/07 09:33:24;;;;;;;1.63;1.50;;;2.00;98.20;;;;;;6058308;23;20434;-82
2024/01/07 09:35:51;;;;;;;1.70;1.50;;;2.00;98.20;;;;;;6044944;23;20419;-79
2024/01/07 09:38:18;;;;;;;1.70;1.60;;;2.00;98.20;;;;;;6057929;23;20429;-80
2024/01/07 09:40:45;;;;;;;1.70;1.60;;;2.00;98.20;;;;;;6061062;23;20527;-79
2024/01/07 09:43:12;;;;;;;1.70;1.50;;;2.00;98.20;;;;;;6023111;23;20498;-79
2024/01/07 09:45:42;;;;;;;2.00;1.80;;;1.90;98.20;;;;;;6062221;23;20455;-80
2024/01/07 09:48:09;;;;;;;1.70;1.50;;;1.80;98.20;;;;;;6045856;23;20451;-82
2024/01/07 09:50:37;;;;;;;1.70;1.50;;;1.70;98.20;;;;;;6062711;23;20531;-80
2024/01/07 09:53:05;;;;;;;1.70;1.50;;;1.70;98.20;;;;;;6046316;23;20455;-83
2024/01/07 09:55:38;;;;;;;1.70;1.60;;;1.70;98.20;;;;;;6060958;23;20514;-79
2024/01/07 09:58:06;;;;;;;1.67;1.50;;;1.60;98.20;;;;;;6044849;23;20486;-80
2024/01/07 10:00:34;;;;;;;1.63;1.50;;;1.70;98.20;;;;;;6061511;23;20446;-79
2024/01/07 10:03:02;;;;;;;1.70;1.50;;;1.70;98.20;;;;;;6042613;23;21062;-81
2024/01/07 10:05:29;;;;;;;4.13;3.93;;;1.70;98.20;;;;;;6069675;23;20962;-80
2024/01/07 10:07:57;;;;;;;1.67;1.50;;;1.70;98.20;;;;;;6045416;23;20455;-79
2024/01/07 10:10:24;;;;;;;1.70;1.50;;;1.70;98.20;;;;;;6060764;23;20459;-81
2024/01/07 10:12:52;;;;;;;1.70;1.60;;;1.70;98.20;;;;;;6045540;23;20481;-82
2024/01/07 10:15:19;;;;;;;1.63;1.50;;;1.70;98.20;;;;;;6059404;23;20824;-79
2024/01/07 10:17:48;;;;;;;1.70;1.60;;;1.70;98.20;;;;;;6046994;23;20477;-81
2024/01/07 10:20:17;;;;;;;1.70;1.60;;;1.80;98.20;;;;;;6071006;23;21100;-79
2024/01/07 10:22:50;;;;;;;1.70;1.60;;;1.70;98.20;;;;;;6042575;23;20964;-80
2024/01/07 10:25:20;;;;;;;1.70;1.50;;;1.70;98.20;;;;;;6058585;23;20498;-79
2024/01/07 10:27:46;;;;;;;1.67;1.50;;;1.70;98.20;;;;;;6043695;23;20870;-79
2024/01/07 10:30:16;;;;;;;1.63;1.40;;;1.70;98.20;;;;;;6062186;23;20454;-82
2024/01/07 10:32:43;;;;;;;1.70;1.60;;;1.70;98.20;;;;;;6046240;23;20455;-80
2024/01/07 10:35:15;;;;;;;1.63;1.50;;;1.70;98.20;;;;;;6068548;23;20443;-80
2024/01/07 10:37:42;;;;;;;1.70;1.50;;;1.70;98.20;;;;;;6045314;23;20798;-81
2024/01/07 10:40:12;;;;;;;1.70;1.60;;;1.70;98.20;;;;;;6061927;23;20448;-81
2024/01/07 10:42:44;;;;;;;1.70;1.60;;;1.70;98.20;;;;;;6046053;23;20447;-82
2024/01/07 10:45:11;;;;;;;1.70;1.50;;;1.70;98.20;;;;;;6060276;23;20821;-80
2024/01/07 10:47:41;;;;;;;1.70;1.50;;;1.70;98.20;;;;;;6043996;23;20459;-80
2024/01/07 10:50:11;;;;;;;1.70;1.60;;;1.70;98.20;;;;;;6060357;23;20522;-80
2024/01/07 10:52:40;;;;;;;1.70;1.50;;;1.70;98.20;;;;;;6046217;23;20490;-81
2024/01/07 10:55:11;;;;;;;1.70;1.50;;;1.70;98.20;;;;;;6062229;23;20506;-80
2024/01/07 10:57:45;;;;;;;1.70;1.50;;;1.70;98.20;;;;;;6047553;23;20455;-82
2024/01/07 11:00:18;;;;;;;1.67;1.50;;;1.70;98.20;;;;;;6061418;23;20474;-81
2024/01/07 11:02:56;;;;;;;1.70;1.50;;;1.80;98.20;;;;;;6044850;23;20624;-80
2024/01/07 11:05:30;;;;;;;1.70;1.50;;;1.80;98.20;;;;;;6064101;23;20890;-82
2024/01/07 11:08:04;;;;;;;1.70;1.50;;;1.80;98.20;;;;;;6048225;23;20775;-82
2024/01/07 11:10:39;;;;;;;1.70;1.50;;;1.90;98.20;;;;;;6064394;23;20455;-82
2024/01/07 11:20:31;;;;;;;1.63;1.50;;;2.00;98.20;;;;;;5764815;24;20940;-81
2024/01/07 11:27:04;;;;;;;1.63;1.50;;;2.00;98.20;;;;;;5903119;24;20463;-81
2024/01/07 11:37:23;;;;;;;1.73;1.63;;;2.00;98.20;;;;;;5848089;24;20878;-79
2024/01/07 11:40:00;;;;;;;1.70;1.50;;;1.90;98.20;;;;;;6002409;23;20435;-78
2024/01/07 11:45:41;;;;;;;1.60;1.50;;;1.80;98.20;;;;;;5992416;23;20430;-80
2024/01/07 11:51:05;;;;;;;1.70;1.60;;;1.80;98.20;;;;;;6079765;23;20549;-81
2024/01/07 11:53:36;;;;;;;3.90;3.60;;;1.80;98.20;;;;;;6089531;23;20426;-81
2024/01/07 11:56:18;;;;;;;1.70;1.50;;;1.80;98.20;;;;;;6085524;23;20425;-81
2024/01/07 11:58:49;;;;;;;1.70;1.50;;;1.80;98.20;;;;;;6089775;23;20417;-79
2024/01/07 12:01:16;;;;;;;1.70;1.60;;;1.80;98.20;;;;;;6083343;23;20526;-82
2024/01/07 12:03:44;;;;;;;2.47;2.27;;;1.70;98.20;;;;;;6100069;23;20718;-80
2024/01/07 12:06:21;;;;;;;1.80;1.70;;;1.70;98.20;;;;;;6082248;23;20446;-81
2024/01/07 12:08:59;;;;;;;1.63;1.50;;;1.70;98.20;;;;;;6094269;23;20411;-79
2024/01/07 12:11:29;;;;;;;1.67;1.53;;;1.70;98.20;;;;;;6082151;23;20869;-81
2024/01/07 12:14:11;;;;;;;1.70;1.50;;;1.70;98.20;;;;;;6102601;23;20447;-80
2024/01/07 12:16:39;;;;;;;1.70;1.50;;;1.70;98.20;;;;;;6072977;23;20461;-79
2024/01/07 12:19:06;;;;;;;1.67;1.50;;;1.70;98.20;;;;;;6102562;23;20419;-79
2024/01/07 12:21:37;;;;;;;1.70;1.50;;;1.70;98.20;;;;;;6086419;23;20633;-78
2024/01/07 12:24:08;;;;;;;1.70;1.50;;;1.70;98.20;;;;;;6104230;23;21065;-81
2024/01/07 12:26:37;;;;;;;1.70;1.60;;;1.70;98.20;;;;;;6086352;23;20535;-80
2024/01/07 12:29:06;;;;;;;1.70;1.50;;;1.70;98.20;;;;;;6104032;23;20502;-79
2024/01/07 12:31:36;;;;;;;1.67;1.50;;;1.70;98.20;;;;;;6082271;23;20454;-80
2024/01/07 12:34:06;;;;;;;1.70;1.50;;;1.70;98.20;;;;;;6102382;23;20426;-83
2024/01/07 12:36:34;;;;;;;1.67;1.50;;;1.70;98.20;;;;;;6083066;23;20476;-81
2024/01/07 12:39:03;;;;;;;1.70;1.60;;;1.70;98.20;;;;;;6116204;23;20423;-80
2024/01/07 12:41:31;;;;;;;1.70;1.60;;;1.70;98.20;;;;;;6090422;23;20457;-79
2024/01/07 12:43:59;;;;;;;1.70;1.60;;;1.70;98.20;;;;;;6116124;23;20415;-79
2024/01/07 12:46:31;;;;;;;1.63;1.50;;;1.70;98.20;;;;;;6064506;23;20668;-80
2024/01/07 12:48:58;;;;;;;1.60;1.50;;;1.70;98.20;;;;;;6092873;23;20430;-78
2024/01/07 12:51:25;;;;;;;1.60;1.50;;;1.70;98.20;;;;;;6078952;23;20477;-79
2024/01/07 12:53:52;;;;;;;1.70;1.60;;;1.70;98.20;;;;;;6113416;23;20462;-79
2024/01/07 12:56:19;;;;;;;1.70;1.60;;;1.70;98.20;;;;;;6078470;23;20852;-79
2024/01/07 12:58:50;;;;;;;1.63;1.50;;;1.70;98.20;;;;;;6104627;23;20423;-79
2024/01/07 13:01:17;;;;;;;1.70;1.50;;;1.70;98.20;;;;;;6084922;23;20492;-80
2024/01/07 13:03:45;;;;;;;1.70;1.50;;;1.60;98.20;;;;;;6102987;23;21074;-79
2024/01/07 13:06:12;;;;;;;1.60;1.50;;;1.60;98.20;;;;;;6075904;23;20865;-79
2024/01/07 13:08:39;;;;;;;1.70;1.60;;;1.60;98.20;;;;;;6105121;23;20509;-80
2024/01/07 13:11:08;;;;;;;1.67;1.50;;;1.50;98.20;;;;;;6084020;23;20569;-79
2024/01/07 13:13:37;;;;;;;1.67;1.50;;;1.50;98.20;;;;;;6105492;23;20821;-81
2024/01/07 13:16:06;;;;;;;1.70;1.50;;;1.50;98.20;;;;;;6075155;23;20980;-79
2024/01/07 13:18:33;;;;;;;1.70;1.50;;;1.50;98.20;;;;;;6105977;23;20426;-80
2024/01/07 13:21:02;;;;;;;1.63;1.50;;;1.50;98.20;;;;;;6075017;23;20461;-80
2024/01/07 13:23:29;;;;;;;1.70;1.60;;;1.50;98.20;;;;;;6106186;23;20633;-80
2024/01/07 13:25:56;;;;;;;1.80;1.70;;;1.50;98.20;;;;;;6075062;23;20506;-83
2024/01/07 13:28:23;;;;;;;1.70;1.60;;;1.50;98.20;;;;;;6108458;23;20767;-81
2024/01/07 13:30:50;;;;;;;1.63;1.50;;;1.50;98.20;;;;;;6073822;23;20466;-79
2024/01/07 13:33:18;;;;;;;1.70;1.50;;;1.50;98.20;;;;;;6111815;23;20481;-80
2024/01/07 13:35:45;;;;;;;1.70;1.60;;;1.50;98.20;;;;;;6091193;23;20433;-85
2024/01/07 13:38:12;;;;;;;1.60;1.50;;;1.50;98.20;;;;;;6085764;23;20500;-85
2024/01/07 13:40:44;;;;;;;1.70;1.50;;;1.50;98.20;;;;;;6133041;23;20422;-84
2024/01/07 13:43:11;;;;;;;1.63;1.50;;;1.40;98.20;;;;;;6106571;23;20573;-82
2024/01/07 13:45:37;;;;;;;1.70;1.53;;;1.30;98.20;;;;;;6136570;23;20421;-81
2024/01/07 13:48:07;;;;;;;1.70;1.50;;;1.20;98.20;;;;;;6110704;23;20536;-83
2024/01/07 13:50:35;;;;;;;1.70;1.50;;;1.10;98.20;;;;;;6129550;23;20731;-84
2024/01/07 13:53:03;;;;;;;1.70;1.53;;;1.10;98.20;;;;;;6114892;23;20446;-82